createdAt,value
2023-04-17T00:00:50.148Z,62.69
2023-04-17T00:01:50.261Z,62.55
2023-04-17T00:02:50.355Z,62.71
2023-04-17T00:03:50.303Z,62.90
2023-04-17T00:04:50.457Z,62.72
2023-04-17T00:05:50.433Z,62.76
2023-04-17T00:06:50.488Z,63.03
2023-04-17T00:07:50.543Z,63.01
2023-04-17T00:08:50.592Z,63.35
2023-04-17T00:09:50.606Z,63.50
2023-04-17T00:10:57.002Z,63.82
2023-04-17T00:11:51.646Z,63.89
2023-04-17T00:12:50.690Z,63.57
2023-04-17T00:13:50.627Z,63.61
2023-04-17T00:14:50.631Z,63.76
2023-04-17T00:15:50.641Z,63.68
2023-04-17T00:16:50.760Z,63.67
2023-04-17T00:17:50.723Z,63.35
2023-04-17T00:18:50.590Z,63.20
2023-04-17T00:19:50.646Z,62.74
2023-04-17T00:20:50.677Z,62.93
2023-04-17T00:21:50.742Z,62.84
2023-04-17T00:22:50.890Z,62.81
2023-04-17T00:23:50.824Z,62.83
2023-04-17T00:24:50.909Z,63.04
2023-04-17T00:25:50.927Z,62.81
2023-04-17T00:26:50.948Z,62.46
2023-04-17T00:27:51.066Z,62.53
2023-04-17T00:28:51.062Z,62.89
2023-04-17T00:29:51.100Z,62.82
2023-04-17T00:30:51.153Z,62.56
2023-04-17T00:31:51.227Z,62.18
2023-04-17T00:32:51.263Z,62.28
2023-04-17T00:33:51.178Z,62.71
2023-04-17T00:34:51.724Z,62.45
2023-04-17T00:35:51.208Z,62.27
2023-04-17T00:36:51.228Z,61.86
2023-04-17T00:37:51.272Z,61.55
2023-04-17T00:38:51.298Z,61.57
2023-04-17T00:39:51.322Z,61.37
2023-04-17T00:40:51.325Z,61.36
2023-04-17T00:41:51.316Z,61.51
2023-04-17T00:42:51.898Z,61.33
2023-04-17T00:43:51.325Z,61.18
2023-04-17T00:44:51.317Z,61.18
2023-04-17T00:45:51.379Z,60.94
2023-04-17T00:46:51.390Z,61.48
2023-04-17T00:47:51.449Z,61.69
2023-04-17T00:48:51.389Z,61.80
2023-04-17T00:49:51.376Z,61.79
2023-04-17T00:50:51.431Z,61.40
2023-04-17T00:51:51.414Z,61.04
2023-04-17T00:52:51.419Z,60.78
2023-04-17T00:53:51.440Z,60.33
2023-04-17T00:54:51.435Z,60.29
2023-04-17T00:55:51.441Z,60.14
2023-04-17T00:56:51.453Z,59.88
2023-04-17T00:57:51.443Z,59.70
2023-04-17T00:58:51.508Z,60.34
2023-04-17T00:59:51.475Z,60.69
2023-04-17T01:00:51.474Z,61.14
2023-04-17T01:01:51.580Z,61.21
2023-04-17T01:02:51.679Z,61.06
2023-04-17T01:03:51.604Z,61.20
2023-04-17T01:04:51.554Z,61.52
2023-04-17T01:05:51.506Z,61.52
2023-04-17T01:06:51.554Z,61.57
2023-04-17T01:07:51.603Z,61.19
2023-04-17T01:08:51.582Z,60.86
2023-04-17T01:09:51.546Z,60.69
2023-04-17T01:10:51.558Z,60.52
2023-04-17T01:11:51.657Z,60.13
2023-04-17T01:12:51.581Z,59.87
2023-04-17T01:13:51.647Z,59.75
2023-04-17T01:14:51.583Z,59.63
2023-04-17T01:15:51.992Z,59.64
2023-04-17T01:16:51.649Z,59.56
2023-04-17T01:17:51.703Z,59.37
2023-04-17T01:18:51.650Z,59.34
2023-04-17T01:19:51.648Z,59.51
2023-04-17T01:20:51.671Z,59.15
2023-04-17T01:21:51.702Z,58.83
2023-04-17T01:22:51.846Z,58.58
2023-04-17T01:23:51.890Z,58.76
2023-04-17T01:24:51.884Z,58.97
2023-04-17T01:25:52.834Z,59.65
2023-04-17T01:26:51.949Z,60.06
2023-04-17T01:27:51.971Z,60.56
2023-04-17T01:28:52.055Z,60.52
2023-04-17T01:29:52.089Z,60.27
2023-04-17T01:30:52.289Z,60.01
2023-04-17T01:31:52.147Z,59.61
2023-04-17T01:32:52.237Z,59.79
2023-04-17T01:33:52.270Z,59.89
2023-04-17T01:34:52.269Z,59.95
2023-04-17T01:35:52.345Z,59.91
2023-04-17T01:36:52.389Z,59.86
2023-04-17T01:37:52.456Z,59.72
2023-04-17T01:38:52.438Z,59.49
2023-04-17T01:39:52.482Z,59.77
2023-04-17T01:40:52.512Z,60.62
2023-04-17T01:41:52.521Z,61.09
2023-04-17T01:42:52.552Z,61.88
2023-04-17T01:43:52.525Z,61.95
2023-04-17T01:44:52.516Z,61.56
2023-04-17T01:45:52.532Z,60.98
2023-04-17T01:46:52.573Z,60.40
2023-04-17T01:47:52.674Z,59.78
2023-04-17T01:48:52.633Z,59.69
2023-04-17T01:49:52.642Z,59.46
2023-04-17T01:50:52.656Z,59.46
2023-04-17T01:51:52.658Z,59.58
2023-04-17T01:52:52.669Z,59.72
2023-04-17T01:53:52.711Z,59.63
2023-04-17T01:54:52.687Z,59.29
2023-04-17T01:55:52.693Z,59.14
2023-04-17T01:56:52.729Z,59.61
2023-04-17T01:57:52.801Z,60.07
2023-04-17T01:58:52.799Z,60.27
2023-04-17T01:59:52.819Z,60.58
2023-04-17T02:00:52.835Z,61.04
2023-04-17T02:01:52.912Z,60.63
2023-04-17T02:02:53.102Z,60.53
2023-04-17T02:03:53.182Z,60.74
2023-04-17T02:04:52.913Z,60.36
2023-04-17T02:05:53.001Z,60.30
2023-04-17T02:06:53.033Z,59.98
2023-04-17T02:07:53.115Z,59.64
2023-04-17T02:08:53.133Z,59.52
2023-04-17T02:09:53.197Z,59.56
2023-04-17T02:10:53.197Z,59.43
2023-04-17T02:11:53.260Z,59.30
2023-04-17T02:12:53.309Z,59.32
2023-04-17T02:13:53.338Z,59.24
2023-04-17T02:14:53.389Z,59.51
2023-04-17T02:15:53.443Z,59.81
2023-04-17T02:16:53.500Z,59.72
2023-04-17T02:17:53.609Z,59.51
2023-04-17T02:18:53.610Z,59.72
2023-04-17T02:19:53.630Z,59.88
2023-04-17T02:20:53.683Z,60.05
2023-04-17T02:21:53.683Z,59.70
2023-04-17T02:22:53.753Z,59.59
2023-04-17T02:23:53.801Z,60.00
2023-04-17T02:24:53.848Z,60.37
2023-04-17T02:25:53.920Z,61.07
2023-04-17T02:26:53.977Z,60.50
2023-04-17T02:27:54.074Z,60.17
2023-04-17T02:28:54.019Z,59.75
2023-04-17T02:29:54.026Z,60.01
2023-04-17T02:30:54.145Z,60.58
2023-04-17T02:31:54.165Z,60.56
2023-04-17T02:32:54.237Z,60.21
2023-04-17T02:33:54.225Z,59.64
2023-04-17T02:34:54.268Z,59.15
2023-04-17T02:35:54.297Z,58.94
2023-04-17T02:36:54.416Z,58.92
2023-04-17T02:37:54.414Z,59.29
2023-04-17T02:38:54.444Z,59.43
2023-04-17T02:39:54.441Z,59.80
2023-04-17T02:40:54.420Z,60.05
2023-04-17T02:41:54.426Z,59.91
2023-04-17T02:42:54.481Z,60.13
2023-04-17T02:43:54.527Z,60.11
2023-04-17T02:44:54.561Z,59.85
2023-04-17T02:45:54.611Z,59.80
2023-04-17T02:46:54.662Z,60.25
2023-04-17T02:47:54.763Z,60.22
2023-04-17T02:48:54.692Z,60.35
2023-04-17T02:49:55.748Z,60.53
2023-04-17T02:50:54.840Z,60.61
2023-04-17T02:51:54.856Z,60.16
2023-04-17T02:52:54.946Z,60.47
2023-04-17T02:53:54.989Z,60.54
2023-04-17T02:54:55.039Z,61.17
2023-04-17T02:55:55.105Z,61.27
2023-04-17T02:56:55.159Z,61.39
2023-04-17T02:57:55.223Z,61.15
2023-04-17T02:58:55.315Z,60.88
2023-04-17T02:59:55.416Z,60.84
2023-04-17T03:00:55.511Z,61.05
2023-04-17T03:01:55.551Z,61.11
2023-04-17T03:02:55.715Z,61.32
2023-04-17T03:03:55.829Z,61.38
2023-04-17T03:04:55.633Z,61.63
2023-04-17T03:05:55.656Z,61.40
2023-04-17T03:06:55.688Z,61.20
2023-04-17T03:07:55.787Z,60.80
2023-04-17T03:08:55.789Z,60.63
2023-04-17T03:09:55.850Z,60.16
2023-04-17T03:10:55.864Z,59.84
2023-04-17T03:11:55.927Z,59.44
2023-04-17T03:12:55.990Z,59.47
2023-04-17T03:13:56.000Z,59.98
2023-04-17T03:14:56.075Z,60.48
2023-04-17T03:15:56.120Z,61.24
2023-04-17T03:16:56.250Z,61.14
2023-04-17T03:17:56.305Z,61.05
2023-04-17T03:18:56.287Z,60.61
2023-04-17T03:19:56.388Z,60.53
2023-04-17T03:20:56.479Z,60.15
2023-04-17T03:21:56.492Z,60.25
2023-04-17T03:22:56.581Z,60.53
2023-04-17T03:23:56.625Z,60.91
2023-04-17T03:24:56.637Z,61.16
2023-04-17T03:25:57.010Z,61.50
2023-04-17T03:26:56.757Z,61.80
2023-04-17T03:27:56.847Z,62.01
2023-04-17T03:28:56.856Z,61.99
2023-04-17T03:29:56.971Z,62.10
2023-04-17T03:30:56.985Z,62.23
2023-04-17T03:31:57.044Z,62.19
2023-04-17T03:32:57.194Z,61.68
2023-04-17T03:33:57.072Z,61.63
2023-04-17T03:34:57.090Z,61.93
2023-04-17T03:35:57.124Z,61.89
2023-04-17T03:36:57.148Z,61.96
2023-04-17T03:37:57.328Z,62.32
2023-04-17T03:38:57.256Z,62.15
2023-04-17T03:39:57.299Z,61.60
2023-04-17T03:40:57.322Z,61.08
2023-04-17T03:41:57.397Z,60.99
2023-04-17T03:42:57.430Z,61.28
2023-04-17T03:43:57.496Z,61.47
2023-04-17T03:44:57.571Z,61.21
2023-04-17T03:45:57.721Z,61.09
2023-04-17T03:46:57.637Z,60.95
2023-04-17T03:47:57.690Z,60.71
2023-04-17T03:48:57.657Z,60.26
2023-04-17T03:49:57.681Z,59.81
2023-04-17T03:50:57.690Z,59.71
2023-04-17T03:51:57.730Z,60.67
2023-04-17T03:52:57.719Z,60.94
2023-04-17T03:53:57.758Z,60.92
2023-04-17T03:54:57.768Z,60.92
2023-04-17T03:55:57.837Z,60.87
2023-04-17T03:56:57.925Z,61.03
2023-04-17T03:57:57.982Z,61.17
2023-04-17T03:58:58.011Z,61.20
2023-04-17T03:59:58.086Z,60.95
2023-04-17T04:00:58.164Z,60.60
2023-04-17T04:01:58.375Z,60.40
2023-04-17T04:02:58.383Z,60.08
2023-04-17T04:03:58.432Z,59.98
2023-04-17T04:04:58.405Z,59.97
2023-04-17T04:05:58.458Z,60.23
2023-04-17T04:06:58.546Z,60.39
2023-04-17T04:07:58.633Z,60.12
2023-04-17T04:08:58.643Z,60.17
2023-04-17T04:09:58.674Z,60.04
2023-04-17T04:10:58.772Z,60.15
2023-04-17T04:11:58.829Z,60.12
2023-04-17T04:12:58.892Z,60.07
2023-04-17T04:13:58.964Z,59.90
2023-04-17T04:14:59.007Z,59.73
2023-04-17T04:15:59.117Z,59.77
2023-04-17T04:16:59.108Z,60.06
2023-04-17T04:17:59.200Z,60.09
2023-04-17T04:18:59.186Z,60.07
2023-04-17T04:19:59.249Z,59.96
2023-04-17T04:20:59.321Z,59.82
2023-04-17T04:21:59.370Z,59.63
2023-04-17T04:22:59.781Z,59.86
2023-04-17T04:23:59.388Z,59.83
2023-04-17T04:24:59.442Z,59.63
2023-04-17T04:25:59.466Z,59.76
2023-04-17T04:26:59.516Z,59.94
2023-04-17T04:27:59.589Z,59.58
2023-04-17T04:28:59.714Z,59.39
2023-04-17T04:29:59.702Z,59.65
2023-04-17T04:30:59.756Z,59.88
2023-04-17T04:31:59.830Z,60.41
2023-04-17T04:32:59.910Z,60.82
2023-04-17T04:33:59.870Z,60.83
2023-04-17T04:34:59.938Z,60.75
2023-04-17T04:35:59.964Z,60.66
2023-04-17T04:36:59.974Z,61.01
2023-04-17T04:38:00.113Z,61.29
2023-04-17T04:39:00.119Z,61.28
2023-04-17T04:40:00.133Z,61.54
2023-04-17T04:41:00.200Z,61.58
2023-04-17T04:42:00.216Z,61.66
2023-04-17T04:43:00.374Z,61.57
2023-04-17T04:44:00.334Z,61.74
2023-04-17T04:45:00.383Z,61.88
2023-04-17T04:46:00.477Z,61.68
2023-04-17T04:47:00.661Z,61.72
2023-04-17T04:48:00.627Z,61.69
2023-04-17T04:49:00.632Z,61.56
2023-04-17T04:50:00.695Z,61.86
2023-04-17T04:51:00.702Z,61.68
2023-04-17T04:52:00.742Z,61.22
2023-04-17T04:53:00.822Z,61.28
2023-04-17T04:54:00.871Z,61.05
2023-04-17T04:55:00.844Z,60.85
2023-04-17T04:56:00.860Z,60.96
2023-04-17T04:57:00.934Z,60.93
2023-04-17T04:58:00.939Z,61.21
2023-04-17T04:59:00.969Z,61.54
2023-04-17T05:00:00.949Z,61.39
2023-04-17T05:02:28.597Z,61.59
2023-04-17T05:03:21.065Z,61.37
2023-04-17T05:04:20.589Z,60.97
2023-04-17T05:05:20.508Z,60.65
2023-04-17T05:06:20.544Z,61.28
2023-04-17T05:07:20.582Z,61.31
2023-04-17T05:08:20.588Z,61.10
2023-04-17T05:09:20.536Z,61.17
2023-04-17T05:10:20.520Z,60.92
2023-04-17T05:11:20.496Z,61.19
2023-04-17T05:12:20.518Z,61.21
2023-04-17T05:13:20.565Z,61.33
2023-04-17T05:14:20.556Z,61.14
2023-04-17T05:15:20.646Z,61.15
2023-04-17T05:16:20.652Z,61.85
2023-04-17T05:17:20.740Z,61.95
2023-04-17T05:18:20.682Z,62.45
2023-04-17T05:19:20.708Z,62.38
2023-04-17T05:20:20.709Z,62.25
2023-04-17T05:21:20.799Z,62.05
2023-04-17T05:22:20.782Z,61.87
2023-04-17T05:23:20.932Z,61.97
2023-04-17T05:24:20.814Z,61.97
2023-04-17T05:25:20.868Z,61.79
2023-04-17T05:26:20.751Z,61.53
2023-04-17T05:27:20.808Z,61.61
2023-04-17T05:28:20.982Z,61.74
2023-04-17T05:29:20.924Z,61.68
2023-04-17T05:30:20.914Z,61.29
2023-04-17T05:31:21.000Z,60.61
2023-04-17T05:32:21.026Z,60.44
2023-04-17T05:33:21.256Z,60.79
2023-04-17T05:34:20.961Z,60.93
2023-04-17T05:35:20.953Z,60.86
2023-04-17T05:36:21.242Z,60.67
2023-04-17T05:37:20.938Z,60.33
2023-04-17T05:38:21.389Z,60.41
2023-04-17T05:39:21.637Z,60.44
2023-04-17T05:40:21.634Z,60.72
2023-04-17T05:41:21.284Z,60.89
2023-04-17T05:42:21.153Z,60.97
2023-04-17T05:43:21.697Z,60.92
2023-04-17T05:44:21.723Z,61.34
2023-04-17T05:46:29.200Z,61.66
2023-04-17T05:47:21.359Z,61.90
2023-04-17T05:48:21.680Z,61.65
2023-04-17T05:49:21.940Z,61.56
2023-04-17T05:50:21.603Z,61.35
2023-04-17T05:51:21.378Z,61.30
2023-04-17T05:52:21.430Z,61.27
2023-04-17T05:53:21.433Z,60.87
2023-04-17T05:54:21.352Z,60.46
2023-04-17T05:55:21.241Z,59.86
2023-04-17T05:56:21.325Z,59.61
2023-04-17T05:57:21.345Z,59.54
2023-04-17T05:58:24.429Z,59.54
2023-04-17T05:59:21.221Z,59.43
2023-04-17T06:00:22.536Z,59.08
2023-04-17T06:01:21.476Z,59.04
2023-04-17T06:02:21.400Z,58.51
2023-04-17T06:03:21.513Z,58.05
2023-04-17T06:04:21.582Z,57.57
2023-04-17T06:05:21.415Z,57.46
2023-04-17T06:06:21.278Z,58.02
2023-04-17T06:07:21.311Z,58.25
2023-04-17T06:08:21.335Z,57.82
2023-04-17T06:09:21.299Z,57.72
2023-04-17T06:10:21.231Z,57.89
2023-04-17T06:11:21.346Z,58.06
2023-04-17T06:12:21.724Z,58.09
2023-04-17T06:13:21.256Z,58.06
2023-04-17T06:14:21.246Z,57.81
2023-04-17T06:15:21.285Z,57.90
2023-04-17T06:16:21.229Z,57.79
2023-04-17T06:17:21.221Z,57.34
2023-04-17T06:18:21.205Z,57.55
2023-04-17T06:19:21.231Z,57.72
2023-04-17T06:20:21.211Z,57.59
2023-04-17T06:21:21.236Z,57.49
2023-04-17T06:22:21.150Z,56.84
2023-04-17T06:23:21.193Z,56.91
2023-04-17T06:24:21.344Z,56.67
2023-04-17T06:25:21.165Z,56.45
2023-04-17T06:26:21.153Z,56.04
2023-04-17T06:27:21.152Z,56.13
2023-04-17T06:28:21.085Z,56.41
2023-04-17T06:29:21.114Z,56.58
2023-04-17T06:30:21.194Z,56.77
2023-04-17T06:31:21.222Z,56.87
2023-04-17T06:32:21.104Z,57.50
2023-04-17T06:33:21.052Z,57.40
2023-04-17T06:34:21.092Z,57.00
2023-04-17T06:35:21.115Z,56.90
2023-04-17T06:36:21.114Z,57.25
2023-04-17T06:37:21.179Z,57.18
2023-04-17T06:38:21.040Z,56.93
2023-04-17T06:39:21.399Z,56.54
2023-04-17T06:40:21.067Z,56.63
2023-04-17T06:41:21.038Z,56.08
2023-04-17T06:42:21.082Z,55.62
2023-04-17T06:43:21.789Z,55.74
2023-04-17T06:44:21.745Z,55.87
2023-04-17T06:45:21.318Z,55.75
2023-04-17T06:46:20.998Z,55.85
2023-04-17T06:47:20.979Z,55.95
2023-04-17T06:48:20.968Z,55.71
2023-04-17T06:49:20.924Z,55.40
2023-04-17T06:50:20.957Z,55.13
2023-04-17T06:51:20.988Z,55.04
2023-04-17T06:52:20.947Z,54.65
2023-04-17T06:53:20.942Z,54.43
2023-04-17T06:54:20.919Z,54.72
2023-04-17T06:55:21.403Z,54.99
2023-04-17T06:56:21.037Z,55.15
2023-04-17T06:57:21.007Z,55.34
2023-04-17T06:58:21.018Z,55.58
2023-04-17T06:59:21.017Z,55.46
2023-04-17T07:00:20.997Z,55.10
2023-04-17T07:01:21.097Z,55.27
2023-04-17T07:02:21.274Z,55.57
2023-04-17T07:03:21.146Z,56.32
2023-04-17T07:04:21.200Z,56.58
2023-04-17T07:05:21.096Z,56.76
2023-04-17T07:06:21.039Z,56.66
2023-04-17T07:07:20.942Z,56.73
2023-04-17T07:08:20.922Z,56.80
2023-04-17T07:09:20.865Z,56.37
2023-04-17T07:10:21.065Z,56.22
2023-04-17T07:11:20.892Z,56.21
2023-04-17T07:12:20.863Z,56.08
2023-04-17T07:13:20.904Z,55.98
2023-04-17T07:14:20.893Z,56.05
2023-04-17T07:15:20.934Z,56.05
2023-04-17T07:16:20.994Z,56.20
2023-04-17T07:17:20.923Z,56.34
2023-04-17T07:18:20.818Z,56.12
2023-04-17T07:19:20.818Z,55.39
2023-04-17T07:20:20.827Z,54.86
2023-04-17T07:21:20.828Z,54.59
2023-04-17T07:22:20.900Z,54.29
2023-04-17T07:23:20.840Z,54.47
2023-04-17T07:24:20.764Z,54.23
2023-04-17T07:25:20.869Z,53.71
2023-04-17T07:26:20.822Z,53.54
2023-04-17T07:27:20.772Z,53.69
2023-04-17T07:28:20.782Z,53.63
2023-04-17T07:29:20.846Z,53.17
2023-04-17T07:30:20.765Z,53.33
2023-04-17T07:31:20.835Z,53.55
2023-04-17T07:32:20.692Z,53.33
2023-04-17T07:33:20.781Z,53.05
2023-04-17T07:34:20.859Z,53.04
2023-04-17T07:35:21.411Z,52.76
2023-04-17T07:36:20.736Z,52.27
2023-04-17T07:37:20.777Z,52.09
2023-04-17T07:38:20.744Z,51.91
2023-04-17T07:39:20.722Z,51.62
2023-04-17T07:40:20.859Z,50.57
2023-04-17T07:41:20.754Z,49.60
2023-04-17T07:42:20.673Z,49.84
2023-04-17T07:43:20.967Z,49.88
2023-04-17T07:44:20.695Z,49.65
2023-04-17T07:45:20.689Z,49.72
2023-04-17T07:46:20.734Z,50.50
2023-04-17T07:47:20.785Z,50.26
2023-04-17T07:48:20.780Z,50.05
2023-04-17T07:49:20.613Z,49.29
2023-04-17T07:50:20.626Z,48.61
2023-04-17T07:51:20.634Z,48.37
2023-04-17T07:52:20.637Z,48.43
2023-04-17T07:53:20.720Z,48.21
2023-04-17T07:54:20.655Z,48.48
2023-04-17T07:55:20.563Z,48.60
2023-04-17T07:56:20.725Z,49.19
2023-04-17T07:57:20.594Z,48.97
2023-04-17T07:58:20.588Z,49.02
2023-04-17T07:59:20.657Z,48.51
2023-04-17T08:00:21.605Z,48.61
2023-04-17T08:01:20.663Z,48.70
2023-04-17T08:02:21.409Z,48.25
2023-04-17T08:03:20.982Z,47.88
2023-04-17T08:04:21.554Z,47.73
2023-04-17T08:05:21.360Z,47.85
2023-04-17T08:06:20.975Z,47.89
2023-04-17T08:07:21.763Z,47.84
2023-04-17T08:08:21.011Z,48.04
2023-04-17T08:09:20.935Z,47.50
2023-04-17T08:10:22.392Z,47.15
2023-04-17T08:11:20.834Z,47.05
2023-04-17T08:12:20.985Z,47.49
2023-04-17T08:13:20.864Z,47.94
2023-04-17T08:14:20.733Z,47.51
2023-04-17T08:15:20.890Z,47.46
2023-04-17T08:16:21.796Z,47.93
2023-04-17T08:17:20.818Z,48.08
2023-04-17T08:18:20.867Z,48.26
2023-04-17T08:19:20.969Z,47.91
2023-04-17T08:20:20.881Z,47.34
2023-04-17T08:21:20.786Z,47.34
2023-04-17T08:22:20.818Z,47.28
2023-04-17T08:23:20.621Z,47.16
2023-04-17T08:24:20.799Z,46.69
2023-04-17T08:25:21.784Z,46.77
2023-04-17T08:26:20.959Z,46.90
2023-04-17T08:27:21.446Z,46.91
2023-04-17T08:28:20.752Z,46.58
2023-04-17T08:29:21.374Z,46.14
2023-04-17T08:30:21.377Z,45.78
2023-04-17T08:31:20.795Z,45.56
2023-04-17T08:32:20.630Z,45.89
2023-04-17T08:33:21.222Z,46.09
2023-04-17T08:34:20.611Z,46.57
2023-04-17T08:35:20.934Z,46.66
2023-04-17T08:36:21.003Z,46.74
2023-04-17T08:37:20.629Z,46.61
2023-04-17T08:38:21.355Z,45.84
2023-04-17T08:39:20.552Z,45.33
2023-04-17T08:40:21.779Z,45.09
2023-04-17T08:41:20.562Z,45.11
2023-04-17T08:42:20.572Z,44.59
2023-04-17T08:43:20.581Z,44.62
2023-04-17T08:44:20.611Z,44.89
2023-04-17T08:45:21.320Z,45.01
2023-04-17T08:46:20.653Z,44.49
2023-04-17T08:47:24.408Z,44.10
2023-04-17T08:48:20.587Z,43.88
2023-04-17T08:49:20.573Z,43.96
2023-04-17T08:50:20.563Z,43.90
2023-04-17T08:51:20.528Z,43.71
2023-04-17T08:52:20.601Z,43.29
2023-04-17T08:53:20.549Z,42.81
2023-04-17T08:54:20.462Z,42.71
2023-04-17T08:55:20.544Z,41.94
2023-04-17T08:56:20.469Z,42.22
2023-04-17T08:57:20.476Z,42.68
2023-04-17T08:58:20.478Z,42.41
2023-04-17T08:59:20.464Z,42.02
2023-04-17T09:00:20.588Z,41.84
2023-04-17T09:01:21.690Z,41.87
2023-04-17T09:02:20.703Z,41.70
2023-04-17T09:03:20.746Z,42.50
2023-04-17T09:04:20.804Z,41.32
2023-04-17T09:05:20.618Z,40.89
2023-04-17T09:06:21.480Z,40.73
2023-04-17T09:07:20.508Z,41.46
2023-04-17T09:08:20.573Z,41.76
2023-04-17T09:09:20.566Z,41.51
2023-04-17T09:10:20.869Z,41.77
2023-04-17T09:11:20.670Z,41.75
2023-04-17T09:12:20.756Z,42.19
2023-04-17T09:13:20.651Z,41.74
2023-04-17T09:14:21.833Z,42.00
2023-04-17T09:15:20.574Z,41.55
2023-04-17T09:16:21.577Z,41.57
2023-04-17T09:17:20.595Z,41.51
2023-04-17T09:18:20.653Z,41.10
2023-04-17T09:19:20.573Z,41.09
2023-04-17T09:20:20.728Z,41.08
2023-04-17T09:21:21.040Z,40.72
2023-04-17T09:22:20.845Z,40.15
2023-04-17T09:23:20.768Z,39.54
2023-04-17T09:24:20.818Z,38.94
2023-04-17T09:25:20.757Z,39.23
2023-04-17T09:26:20.973Z,39.18
2023-04-17T09:27:20.709Z,39.09
2023-04-17T09:28:20.698Z,38.96
2023-04-17T09:29:20.765Z,38.90
2023-04-17T09:30:20.692Z,38.82
2023-04-17T09:31:20.713Z,38.77
2023-04-17T09:32:20.787Z,39.03
2023-04-17T09:33:20.678Z,39.16
2023-04-17T09:34:20.972Z,39.89
2023-04-17T09:35:20.622Z,40.36
2023-04-17T09:36:22.058Z,40.72
2023-04-17T09:37:20.596Z,41.63
2023-04-17T09:38:20.639Z,41.60
2023-04-17T09:39:20.960Z,41.80
2023-04-17T09:40:20.630Z,41.53
2023-04-17T09:41:20.955Z,41.14
2023-04-17T09:42:20.831Z,40.82
2023-04-17T09:43:20.653Z,40.84
2023-04-17T09:44:20.655Z,41.11
2023-04-17T09:45:20.672Z,41.97
2023-04-17T09:46:20.924Z,42.50
2023-04-17T09:47:20.626Z,43.27
2023-04-17T09:48:20.584Z,43.46
2023-04-17T09:49:20.527Z,43.19
2023-04-17T09:50:20.705Z,42.95
2023-04-17T09:51:20.993Z,42.62
2023-04-17T09:52:20.849Z,42.39
2023-04-17T09:53:21.566Z,41.76
2023-04-17T09:54:20.659Z,42.26
2023-04-17T09:55:20.681Z,42.06
2023-04-17T09:56:20.666Z,41.65
2023-04-17T09:57:20.474Z,41.68
2023-04-17T09:58:20.574Z,41.35
2023-04-17T09:59:20.540Z,41.25
2023-04-17T10:00:20.520Z,40.82
2023-04-17T10:01:20.654Z,40.97
2023-04-17T10:02:20.627Z,41.09
2023-04-17T10:03:20.618Z,40.75
2023-04-17T10:04:20.647Z,40.70
2023-04-17T10:05:20.443Z,40.88
2023-04-17T10:06:20.438Z,40.84
2023-04-17T10:07:20.388Z,40.80
2023-04-17T10:08:20.505Z,40.76
2023-04-17T10:09:20.448Z,40.51
2023-04-17T10:10:20.431Z,40.26
2023-04-17T10:11:20.450Z,40.67
2023-04-17T10:12:20.461Z,40.97
2023-04-17T10:13:20.478Z,40.73
2023-04-17T10:14:21.327Z,40.48
2023-04-17T10:15:20.449Z,40.54
2023-04-17T10:16:21.067Z,40.64
2023-04-17T10:17:20.401Z,41.05
2023-04-17T10:18:21.041Z,41.47
2023-04-17T10:19:21.289Z,42.33
2023-04-17T10:20:20.471Z,42.23
2023-04-17T10:21:20.495Z,42.70
2023-04-17T10:22:20.442Z,42.32
2023-04-17T10:23:20.354Z,42.21
2023-04-17T10:24:20.364Z,42.45
2023-04-17T10:25:20.380Z,41.88
2023-04-17T10:26:20.470Z,41.60
2023-04-17T10:27:20.337Z,41.36
2023-04-17T10:28:20.327Z,41.25
2023-04-17T10:29:20.799Z,41.33
2023-04-17T10:31:20.427Z,41.03
2023-04-17T10:32:20.349Z,41.17
2023-04-17T10:33:20.330Z,41.35
2023-04-17T10:34:20.268Z,41.21
2023-04-17T10:35:20.291Z,40.93
2023-04-17T10:36:20.455Z,41.11
2023-04-17T10:37:20.297Z,41.44
2023-04-17T10:38:20.236Z,41.89
2023-04-17T10:39:20.363Z,42.05
2023-04-17T10:40:21.360Z,42.12
2023-04-17T10:41:20.569Z,43.08
2023-04-17T10:42:20.369Z,43.53
2023-04-17T10:43:20.273Z,43.98
2023-04-17T10:44:20.284Z,43.71
2023-04-17T10:45:20.840Z,43.64
2023-04-17T10:46:20.474Z,42.80
2023-04-17T10:47:20.370Z,42.78
2023-04-17T10:48:20.305Z,42.77
2023-04-17T10:49:20.297Z,42.85
2023-04-17T10:50:20.288Z,43.17
2023-04-17T10:51:20.310Z,43.18
2023-04-17T10:52:20.213Z,42.93
2023-04-17T10:53:20.229Z,42.88
2023-04-17T10:54:20.223Z,42.88
2023-04-17T10:55:20.225Z,42.75
2023-04-17T10:56:20.572Z,42.69
2023-04-17T10:57:20.341Z,42.64
2023-04-17T10:58:20.955Z,42.78
2023-04-17T10:59:20.345Z,42.80
2023-04-17T11:00:20.202Z,42.67
2023-04-17T11:01:20.462Z,42.59
2023-04-17T11:02:20.318Z,42.15
2023-04-17T11:03:20.410Z,42.02
2023-04-17T11:04:20.215Z,41.83
2023-04-17T11:05:20.179Z,41.90
2023-04-17T11:06:20.900Z,42.00
2023-04-17T11:07:20.143Z,42.43
2023-04-17T11:08:20.171Z,42.37
2023-04-17T11:09:20.220Z,42.48
2023-04-17T11:10:20.183Z,42.27
2023-04-17T11:11:26.923Z,42.34
2023-04-17T11:12:20.128Z,42.25
2023-04-17T11:13:20.164Z,42.33
2023-04-17T11:14:20.184Z,42.57
2023-04-17T11:15:20.157Z,42.74
2023-04-17T11:16:20.423Z,43.18
2023-04-17T11:17:20.235Z,43.19
2023-04-17T11:18:20.205Z,43.79
2023-04-17T11:19:20.082Z,44.13
2023-04-17T11:20:20.023Z,43.96
2023-04-17T11:21:20.437Z,43.96
2023-04-17T11:22:20.111Z,43.70
2023-04-17T11:23:20.049Z,43.65
2023-04-17T11:24:20.079Z,43.62
2023-04-17T11:25:20.133Z,43.37
2023-04-17T11:26:20.456Z,43.50
2023-04-17T11:27:20.147Z,43.57
2023-04-17T11:28:20.248Z,43.43
2023-04-17T11:29:20.219Z,43.11
2023-04-17T11:30:20.292Z,42.93
2023-04-17T11:31:21.545Z,43.29
2023-04-17T11:32:20.395Z,43.74
2023-04-17T11:33:20.691Z,43.57
2023-04-17T11:34:20.564Z,43.37
2023-04-17T11:35:20.500Z,42.76
2023-04-17T11:36:21.390Z,42.21
2023-04-17T11:37:20.400Z,41.93
2023-04-17T11:38:20.390Z,42.32
2023-04-17T11:39:20.439Z,42.41
2023-04-17T11:40:20.535Z,42.37
2023-04-17T11:41:20.476Z,41.97
2023-04-17T11:42:20.563Z,42.10
2023-04-17T11:43:20.470Z,42.64
2023-04-17T11:44:20.364Z,42.43
2023-04-17T11:45:20.300Z,42.04
2023-04-17T11:46:20.326Z,41.82
2023-04-17T11:47:20.344Z,41.61
2023-04-17T11:48:20.295Z,41.60
2023-04-17T11:49:20.325Z,41.37
2023-04-17T11:50:20.227Z,41.33
2023-04-17T11:51:20.229Z,41.35
2023-04-17T11:52:20.307Z,41.93
2023-04-17T11:53:20.148Z,41.31
2023-04-17T11:54:20.222Z,41.23
2023-04-17T11:55:20.338Z,40.99
2023-04-17T11:56:20.302Z,40.90
2023-04-17T11:57:20.248Z,40.68
2023-04-17T11:58:20.213Z,40.57
2023-04-17T11:59:20.231Z,41.20
2023-04-17T12:00:20.252Z,40.77
2023-04-17T12:01:20.127Z,40.97
2023-04-17T12:02:20.343Z,40.82
2023-04-17T12:03:20.271Z,40.77
2023-04-17T12:04:20.278Z,40.79
2023-04-17T12:05:21.463Z,40.54
2023-04-17T12:06:20.893Z,41.22
2023-04-17T12:07:20.196Z,40.95
2023-04-17T12:08:20.146Z,41.67
2023-04-17T12:09:20.123Z,42.20
2023-04-17T12:10:20.210Z,42.33
2023-04-17T12:11:20.168Z,41.51
2023-04-17T12:12:20.159Z,41.08
2023-04-17T12:13:20.137Z,40.94
2023-04-17T12:14:20.127Z,40.52
2023-04-17T12:15:20.068Z,40.55
2023-04-17T12:16:20.170Z,40.98
2023-04-17T12:17:20.170Z,40.88
2023-04-17T12:18:20.074Z,40.77
2023-04-17T12:19:20.085Z,40.67
2023-04-17T12:20:20.090Z,40.64
2023-04-17T12:21:20.105Z,40.66
2023-04-17T12:22:20.117Z,40.55
2023-04-17T12:23:20.039Z,40.45
2023-04-17T12:24:20.081Z,40.69
2023-04-17T12:25:20.029Z,41.13
2023-04-17T12:26:20.056Z,41.25
2023-04-17T12:27:20.217Z,42.06
2023-04-17T12:28:19.981Z,41.82
2023-04-17T12:29:26.540Z,41.67
2023-04-17T12:30:20.115Z,41.51
2023-04-17T12:31:20.078Z,41.61
2023-04-17T12:32:20.153Z,41.16
2023-04-17T12:33:19.941Z,40.73
2023-04-17T12:34:19.993Z,40.75
2023-04-17T12:35:20.031Z,40.39
2023-04-17T12:36:20.030Z,39.81
2023-04-17T12:37:19.935Z,39.60
2023-04-17T12:38:19.945Z,40.65
2023-04-17T12:39:20.112Z,40.14
2023-04-17T12:40:20.775Z,39.66
2023-04-17T12:41:19.993Z,39.31
2023-04-17T12:42:19.973Z,39.21
2023-04-17T12:43:19.877Z,38.67
2023-04-17T12:44:19.914Z,38.33
2023-04-17T12:45:20.013Z,38.04
2023-04-17T12:46:19.923Z,38.74
2023-04-17T12:47:19.972Z,38.74
2023-04-17T12:48:19.886Z,39.88
2023-04-17T12:49:19.852Z,39.09
2023-04-17T12:50:19.903Z,38.71
2023-04-17T12:51:19.810Z,39.17
2023-04-17T12:52:19.830Z,39.19
2023-04-17T12:53:19.835Z,38.92
2023-04-17T12:54:19.894Z,38.77
2023-04-17T12:55:19.805Z,38.66
2023-04-17T12:56:20.851Z,38.56